Time;durP1;ratioP1;P1;durP2;ratioP2;P2;SDS_P1;SDS_P2;PMS_P1;PMS_P2;Temp;Humidity;BMP_temperature;BMP_pressure;BME280_temperature;BME280_humidity;BME280_pressure;Samples;Min_cycle;Max_cycle;Signal;HPM_P1;HPM_P2
2022/03/27 00:01:29;;;;;;;18.90;9.00;;;6.90;84.60;;;;;;5068796;28;20768;-72
2022/03/27 00:03:55;;;;;;;29.03;9.83;;;6.80;85.90;;;;;;5070490;28;20504;-72
2022/03/27 00:06:21;;;;;;;22.10;9.37;;;6.80;85.30;;;;;;5072243;28;20191;-72
2022/03/27 00:08:46;;;;;;;22.20;8.47;;;6.80;85.80;;;;;;5072063;28;20195;-71
2022/03/27 00:11:25;;;;;;;26.70;9.33;;;6.70;85.40;;;;;;5071818;28;20309;-73
2022/03/27 00:14:01;;;;;;;18.23;8.73;;;6.60;86.20;;;;;;5070863;28;20201;-72
2022/03/27 00:16:27;;;;;;;18.77;9.50;;;6.60;85.60;;;;;;5072121;28;20883;-72
2022/03/27 00:18:53;;;;;;;15.07;8.43;;;6.60;85.50;;;;;;5072827;28;20429;-72
2022/03/27 00:21:22;;;;;;;23.03;9.13;;;6.60;86.00;;;;;;5072722;28;20451;-71
2022/03/27 00:23:52;;;;;;;22.97;10.57;;;6.60;86.20;;;;;;5072717;28;20223;-71
2022/03/27 00:26:18;;;;;;;27.77;9.83;;;6.50;87.70;;;;;;5072757;28;20517;-71
2022/03/27 00:28:44;;;;;;;25.83;8.90;;;6.50;89.20;;;;;;5071459;28;20463;-72
2022/03/27 00:31:11;;;;;;;21.37;8.60;;;6.40;88.30;;;;;;5072567;28;20437;-72
2022/03/27 00:33:38;;;;;;;24.53;9.93;;;6.40;87.20;;;;;;5072722;28;20756;-72
2022/03/27 00:36:06;;;;;;;23.87;8.20;;;6.40;87.70;;;;;;5072604;28;20447;-72
2022/03/27 00:38:32;;;;;;;18.93;9.50;;;6.40;86.40;;;;;;5072512;28;20794;-71
2022/03/27 00:40:59;;;;;;;28.50;9.50;;;6.30;88.60;;;;;;5072246;28;20448;-73
2022/03/27 00:43:26;;;;;;;20.23;9.10;;;6.30;88.10;;;;;;5071764;28;20203;-73
2022/03/27 00:45:53;;;;;;;20.47;9.73;;;6.20;89.20;;;;;;5071568;28;20422;-73
2022/03/27 00:48:20;;;;;;;22.43;10.00;;;6.20;88.80;;;;;;5071420;28;20419;-73
2022/03/27 00:50:47;;;;;;;19.90;9.87;;;6.20;89.10;;;;;;5071480;28;20816;-75
2022/03/27 00:53:14;;;;;;;24.33;9.60;;;6.20;90.00;;;;;;5071475;28;20454;-72
2022/03/27 00:55:39;;;;;;;17.63;9.20;;;6.10;90.10;;;;;;5071219;28;20543;-71
2022/03/27 00:58:06;;;;;;;22.30;9.20;;;6.20;89.60;;;;;;5071061;28;20559;-74
2022/03/27 01:00:45;;;;;;;25.33;9.30;;;6.20;88.10;;;;;;5069611;28;20677;-73
2022/03/27 01:03:16;;;;;;;21.83;9.60;;;6.20;87.50;;;;;;5070761;28;20459;-74
2022/03/27 01:05:45;;;;;;;20.60;8.90;;;6.40;86.00;;;;;;5070922;28;20393;-74
2022/03/27 01:08:12;;;;;;;27.40;9.60;;;6.30;86.30;;;;;;5070583;28;20409;-73
2022/03/27 01:10:39;;;;;;;32.00;10.03;;;6.40;85.80;;;;;;5070129;28;20445;-73
2022/03/27 01:13:14;;;;;;;35.33;9.43;;;6.30;86.20;;;;;;5052294;28;20426;-73
2022/03/27 01:15:43;;;;;;;21.80;9.50;;;6.20;86.90;;;;;;5069778;28;20918;-73
2022/03/27 01:18:09;;;;;;;22.60;10.50;;;6.10;87.10;;;;;;5070750;28;20859;-70
2022/03/27 01:20:38;;;;;;;26.63;10.10;;;6.00;88.00;;;;;;5070614;28;20472;-73
2022/03/27 01:23:09;;;;;;;28.90;10.57;;;6.00;88.70;;;;;;5069536;28;20735;-73
2022/03/27 01:25:36;;;;;;;18.50;7.90;;;5.90;89.10;;;;;;5070777;28;20406;-71
2022/03/27 01:28:03;;;;;;;22.97;9.70;;;5.80;89.20;;;;;;5070722;28;20408;-71
2022/03/27 01:30:29;;;;;;;21.73;9.00;;;5.70;89.50;;;;;;5070633;28;20444;-71
2022/03/27 01:32:55;;;;;;;30.93;9.20;;;5.70;89.10;;;;;;5070652;28;20508;-71
2022/03/27 01:35:21;;;;;;;20.53;10.37;;;5.80;89.00;;;;;;5070425;28;20428;-72
2022/03/27 01:37:48;;;;;;;29.93;10.40;;;5.80;90.00;;;;;;5070566;28;20500;-73
2022/03/27 01:40:13;;;;;;;19.90;9.20;;;5.80;89.30;;;;;;5070482;28;20444;-73
2022/03/27 01:42:39;;;;;;;22.13;9.73;;;5.80;90.40;;;;;;5070197;28;20457;-72
2022/03/27 01:45:05;;;;;;;24.83;9.70;;;5.80;89.40;;;;;;5069020;28;20210;-74
2022/03/27 01:47:32;;;;;;;19.57;9.60;;;5.80;89.60;;;;;;5069739;28;20413;-74
2022/03/27 01:49:57;;;;;;;18.87;8.37;;;5.80;89.60;;;;;;5068233;28;20481;-73
2022/03/27 01:52:23;;;;;;;26.90;10.87;;;5.80;90.00;;;;;;5069383;28;20460;-74
2022/03/27 01:54:48;;;;;;;30.27;11.27;;;5.90;90.10;;;;;;5069447;28;20190;-74
2022/03/27 01:57:15;;;;;;;25.93;9.60;;;5.80;90.20;;;;;;5067900;28;20735;-74
2022/03/27 01:59:41;;;;;;;31.73;11.43;;;5.70;90.10;;;;;;5067664;28;20564;-74
2022/03/27 02:02:06;;;;;;;24.00;10.63;;;5.70;90.80;;;;;;5069355;28;20436;-73
2022/03/27 02:04:32;;;;;;;30.93;10.27;;;5.60;90.90;;;;;;5069165;28;20921;-73
2022/03/27 02:06:57;;;;;;;25.57;9.83;;;5.60;91.20;;;;;;5067826;28;20666;-73
2022/03/27 02:09:23;;;;;;;24.90;9.40;;;5.60;91.80;;;;;;5069074;28;20248;-73
2022/03/27 02:11:49;;;;;;;26.53;12.23;;;5.60;91.60;;;;;;5067658;28;20297;-73
2022/03/27 02:14:14;;;;;;;26.60;10.57;;;5.50;91.70;;;;;;5068929;28;20546;-73
2022/03/27 02:16:40;;;;;;;21.60;10.00;;;5.50;91.50;;;;;;5069132;28;20644;-73
2022/03/27 02:19:10;;;;;;;26.27;10.90;;;5.50;91.60;;;;;;5069220;28;20643;-73
2022/03/27 02:21:37;;;;;;;22.00;9.83;;;5.50;91.50;;;;;;5069308;28;20194;-71
2022/03/27 02:24:03;;;;;;;24.00;11.00;;;5.60;91.70;;;;;;5068994;28;20508;-73
2022/03/27 02:26:32;;;;;;;31.67;13.67;;;5.50;91.60;;;;;;5070117;28;20448;-74
2022/03/27 02:28:58;;;;;;;26.57;11.80;;;5.50;91.90;;;;;;5069513;28;20420;-73
2022/03/27 02:31:24;;;;;;;25.80;11.97;;;5.50;92.20;;;;;;5068029;28;20512;-73
2022/03/27 02:33:49;;;;;;;24.70;11.10;;;5.40;92.10;;;;;;5068135;28;20209;-77
2022/03/27 02:36:16;;;;;;;32.10;11.63;;;5.50;91.70;;;;;;5069003;28;20474;-75
2022/03/27 02:38:42;;;;;;;26.50;11.70;;;5.50;92.20;;;;;;5068864;28;20296;-77
2022/03/27 02:41:08;;;;;;;29.07;12.60;;;5.50;92.70;;;;;;5068941;28;20441;-77
2022/03/27 02:43:38;;;;;;;25.60;10.77;;;5.60;93.10;;;;;;5050547;28;20470;-74
2022/03/27 02:46:05;;;;;;;26.73;12.27;;;5.70;93.20;;;;;;5069111;28;20167;-74
2022/03/27 02:48:31;;;;;;;24.23;11.37;;;5.70;93.00;;;;;;5068704;28;20424;-73
2022/03/27 02:50:56;;;;;;;29.03;9.83;;;5.70;93.60;;;;;;5068620;28;20433;-74
2022/03/27 02:53:22;;;;;;;29.00;11.30;;;5.60;93.70;;;;;;5068721;28;20186;-74
2022/03/27 02:55:47;;;;;;;26.93;12.63;;;5.60;93.90;;;;;;5068888;28;20190;-74
2022/03/27 02:58:13;;;;;;;21.73;11.27;;;5.60;94.40;;;;;;5068620;28;20217;-74
2022/03/27 03:00:41;;;;;;;19.63;11.10;;;5.60;94.70;;;;;;5068450;28;20625;-73
2022/03/27 03:03:07;;;;;;;28.30;11.37;;;5.50;94.60;;;;;;5068367;28;20548;-75
2022/03/27 03:05:34;;;;;;;24.47;12.03;;;5.50;95.00;;;;;;5066911;28;20471;-73
2022/03/27 03:08:02;;;;;;;27.67;12.33;;;5.50;95.30;;;;;;5068286;28;20429;-73
2022/03/27 03:10:29;;;;;;;24.57;12.60;;;5.50;95.10;;;;;;5068190;28;21113;-74
2022/03/27 03:12:55;;;;;;;28.27;12.73;;;5.40;95.20;;;;;;5067146;28;20425;-73
2022/03/27 03:15:23;;;;;;;23.67;11.53;;;5.40;95.40;;;;;;5068822;28;20413;-73
2022/03/27 03:17:49;;;;;;;35.57;12.00;;;5.40;95.70;;;;;;5068296;28;20508;-73
2022/03/27 03:20:17;;;;;;;26.77;12.03;;;5.40;95.80;;;;;;5068287;28;20538;-73
2022/03/27 03:22:43;;;;;;;22.17;11.07;;;5.30;96.10;;;;;;5066887;28;20972;-73
2022/03/27 03:25:10;;;;;;;36.67;12.03;;;5.20;96.30;;;;;;5066595;28;20441;-73
2022/03/27 03:27:36;;;;;;;20.10;11.33;;;5.20;96.60;;;;;;5068649;28;20663;-73
2022/03/27 03:30:05;;;;;;;23.60;10.93;;;5.30;96.40;;;;;;5068243;28;20795;-73
2022/03/27 03:32:30;;;;;;;26.93;11.90;;;5.20;96.50;;;;;;5068343;28;20893;-73
2022/03/27 03:34:56;;;;;;;33.80;13.30;;;5.30;96.20;;;;;;5068119;28;20449;-73
2022/03/27 03:37:23;;;;;;;32.20;14.30;;;5.30;95.50;;;;;;5069049;28;20187;-73
2022/03/27 03:39:49;;;;;;;26.73;13.00;;;5.20;95.60;;;;;;5071866;28;20694;-73
2022/03/27 03:42:14;;;;;;;29.13;13.20;;;5.30;95.60;;;;;;5071967;28;20417;-75
2022/03/27 03:44:41;;;;;;;25.67;12.63;;;5.30;95.30;;;;;;5070524;28;20186;-75
2022/03/27 03:47:07;;;;;;;33.63;12.90;;;5.20;95.20;;;;;;5070657;28;20428;-75
2022/03/27 03:49:33;;;;;;;31.30;13.30;;;5.20;94.90;;;;;;5071913;28;20440;-75
2022/03/27 03:51:58;;;;;;;25.97;14.03;;;5.20;95.20;;;;;;5071819;28;20433;-75
2022/03/27 03:54:24;;;;;;;26.30;13.40;;;5.10;95.20;;;;;;5071726;28;20193;-75
2022/03/27 03:56:51;;;;;;;25.40;12.90;;;5.10;95.20;;;;;;5070563;28;20979;-75
2022/03/27 03:59:18;;;;;;;33.37;12.70;;;5.00;96.00;;;;;;5054753;28;20203;-75
2022/03/27 04:01:43;;;;;;;51.97;27.37;;;4.90;96.10;;;;;;5071657;28;20533;-73
2022/03/27 04:04:09;;;;;;;41.13;17.03;;;4.80;96.30;;;;;;5071584;28;21094;-73
2022/03/27 04:06:34;;;;;;;30.73;12.10;;;4.80;96.70;;;;;;5071826;28;20220;-73
2022/03/27 04:09:00;;;;;;;31.73;12.43;;;4.60;97.60;;;;;;5071397;28;20655;-74
2022/03/27 04:11:26;;;;;;;25.30;12.83;;;4.60;98.90;;;;;;5070167;28;20201;-74
2022/03/27 04:13:51;;;;;;;25.00;12.03;;;4.60;99.30;;;;;;5071650;28;20296;-75
2022/03/27 04:16:17;;;;;;;25.70;12.43;;;4.60;99.30;;;;;;5071571;28;20201;-75
2022/03/27 04:18:43;;;;;;;27.93;12.77;;;4.70;99.90;;;;;;5070098;28;20194;-74
2022/03/27 04:21:09;;;;;;;32.67;12.57;;;4.70;99.90;;;;;;5071524;28;20207;-75
2022/03/27 04:23:36;;;;;;;25.87;12.00;;;4.70;99.80;;;;;;5071122;28;20214;-75
2022/03/27 04:26:02;;;;;;;38.90;12.23;;;4.80;99.50;;;;;;5071146;28;20933;-74
2022/03/27 04:28:28;;;;;;;25.00;12.30;;;4.80;99.30;;;;;;5053235;28;21121;-76
2022/03/27 04:30:53;;;;;;;30.30;12.50;;;4.80;99.70;;;;;;5071162;28;20447;-71
2022/03/27 04:33:19;;;;;;;26.80;13.30;;;4.70;99.90;;;;;;5071197;28;20186;-74
2022/03/27 04:35:45;;;;;;;29.23;12.33;;;4.70;99.90;;;;;;5071487;28;20202;-75
2022/03/27 04:38:11;;;;;;;23.23;10.63;;;4.80;99.90;;;;;;5071197;28;20195;-73
2022/03/27 04:40:37;;;;;;;23.53;11.80;;;4.80;99.90;;;;;;5070978;28;20957;-73
2022/03/27 04:43:03;;;;;;;24.37;11.70;;;4.90;99.90;;;;;;5071083;28;20246;-76
2022/03/27 04:45:29;;;;;;;24.37;11.60;;;4.80;99.90;;;;;;5069511;28;20190;-76
2022/03/27 04:47:55;;;;;;;24.13;11.47;;;4.80;99.70;;;;;;5070433;28;20425;-75
2022/03/27 04:50:23;;;;;;;24.70;13.60;;;4.70;99.90;;;;;;5070651;28;20209;-75
2022/03/27 04:52:49;;;;;;;22.53;11.70;;;4.60;99.90;;;;;;5070987;28;20427;-75
2022/03/27 04:55:14;;;;;;;26.60;12.77;;;4.60;99.90;;;;;;5070535;28;20423;-75
2022/03/27 04:57:41;;;;;;;24.50;11.87;;;4.60;99.90;;;;;;5070818;28;20188;-76
2022/03/27 05:00:15;;;;;;;25.53;11.70;;;4.50;99.90;;;;;;5070888;28;20203;-78
2022/03/27 05:02:42;;;;;;;25.27;11.93;;;4.40;99.90;;;;;;5069206;28;20470;-78
2022/03/27 05:05:10;;;;;;;26.20;12.13;;;4.40;99.90;;;;;;5070710;28;20432;-73
2022/03/27 05:07:37;;;;;;;23.80;11.33;;;4.30;99.90;;;;;;5070387;28;20429;-73
2022/03/27 05:10:04;;;;;;;25.50;11.73;;;4.30;99.90;;;;;;5070367;28;20447;-74
2022/03/27 05:12:30;;;;;;;35.50;12.43;;;4.20;99.90;;;;;;5070318;28;20473;-74
2022/03/27 05:14:56;;;;;;;33.10;12.13;;;4.20;99.90;;;;;;5070250;28;20521;-74
2022/03/27 05:17:22;;;;;;;27.57;11.53;;;4.20;99.90;;;;;;5070212;28;20189;-74
2022/03/27 05:19:47;;;;;;;29.57;13.23;;;4.10;99.90;;;;;;5068512;28;20961;-76
2022/03/27 05:22:14;;;;;;;22.63;12.07;;;4.20;99.90;;;;;;5069770;28;20179;-74
2022/03/27 05:24:40;;;;;;;31.00;13.90;;;4.10;99.90;;;;;;5069786;28;20215;-74
2022/03/27 05:27:06;;;;;;;30.03;13.73;;;4.20;99.90;;;;;;5069931;28;20427;-72
2022/03/27 05:29:34;;;;;;;28.67;11.87;;;4.20;99.90;;;;;;5069752;28;20620;-74
2022/03/27 05:32:00;;;;;;;27.83;13.13;;;4.20;99.90;;;;;;5070232;28;20421;-74
2022/03/27 05:34:26;;;;;;;35.70;14.10;;;4.10;99.90;;;;;;5070453;28;20432;-72
2022/03/27 05:36:51;;;;;;;37.87;13.40;;;4.10;99.90;;;;;;5068438;28;20582;-73
2022/03/27 05:39:17;;;;;;;26.03;12.57;;;4.10;99.90;;;;;;5069644;28;20187;-72
2022/03/27 05:41:44;;;;;;;23.70;13.03;;;4.10;99.90;;;;;;5069695;28;20216;-73
2022/03/27 05:44:10;;;;;;;30.33;14.90;;;4.00;99.90;;;;;;5069495;28;20696;-72
2022/03/27 05:46:36;;;;;;;34.43;14.23;;;3.90;99.90;;;;;;5069586;28;20513;-73
2022/03/27 05:49:01;;;;;;;32.70;13.37;;;3.90;99.90;;;;;;5069400;28;20409;-72
2022/03/27 05:51:27;;;;;;;23.70;12.43;;;3.90;99.90;;;;;;5069434;28;20474;-73
2022/03/27 05:53:53;;;;;;;25.67;12.87;;;4.00;99.90;;;;;;5069553;28;20190;-78
2022/03/27 05:56:18;;;;;;;24.30;12.20;;;4.10;99.90;;;;;;5068290;28;20186;-78
2022/03/27 05:58:44;;;;;;;25.40;13.80;;;4.10;99.90;;;;;;5069897;28;20263;-78
2022/03/27 06:01:09;;;;;;;28.13;13.70;;;4.10;99.90;;;;;;5067669;28;20714;-78
2022/03/27 06:03:35;;;;;;;23.20;11.43;;;4.20;99.90;;;;;;5069647;28;20229;-78
2022/03/27 06:06:02;;;;;;;25.93;12.20;;;4.20;99.90;;;;;;5067720;28;20688;-75
2022/03/27 06:08:27;;;;;;;25.50;12.75;;;4.30;99.90;;;;;;5069158;28;20427;-77
2022/03/27 06:10:53;;;;;;;25.30;11.93;;;4.70;99.90;;;;;;5067378;28;20236;-77
2022/03/27 06:13:19;;;;;;;27.00;11.73;;;5.20;99.90;;;;;;5067498;28;20183;-77
2022/03/27 06:15:46;;;;;;;25.80;13.40;;;6.20;99.80;;;;;;5068917;28;20183;-77
2022/03/27 06:18:12;;;;;;;21.90;11.93;;;7.10;97.80;;;;;;5067242;28;20248;-77
2022/03/27 06:20:39;;;;;;;26.07;13.00;;;7.80;95.30;;;;;;5068737;28;20441;-77
2022/03/27 06:23:06;;;;;;;34.53;13.30;;;8.60;93.90;;;;;;5068727;28;20834;-77
2022/03/27 06:25:33;;;;;;;29.43;16.03;;;9.10;92.30;;;;;;5068791;28;20418;-77
2022/03/27 06:27:59;;;;;;;26.97;14.20;;;9.40;91.40;;;;;;5067257;28;20417;-77
2022/03/27 06:30:27;;;;;;;32.17;13.93;;;9.60;90.20;;;;;;5068413;28;20429;-77
2022/03/27 06:32:53;;;;;;;31.73;14.47;;;10.00;90.10;;;;;;5050380;28;20504;-77
2022/03/27 06:35:21;;;;;;;29.77;13.00;;;10.10;88.20;;;;;;5068510;28;20444;-77
2022/03/27 06:37:48;;;;;;;34.07;16.27;;;10.40;85.80;;;;;;5068717;28;20417;-77
2022/03/27 06:40:15;;;;;;;28.93;13.80;;;10.50;84.10;;;;;;5050377;28;20445;-77
2022/03/27 06:42:43;;;;;;;28.63;14.53;;;10.40;80.20;;;;;;5067147;28;20552;-77
2022/03/27 06:45:14;;;;;;;27.67;14.10;;;10.60;80.70;;;;;;5067187;28;20504;-77
2022/03/27 06:47:41;;;;;;;39.40;15.97;;;11.00;80.50;;;;;;5068465;28;20418;-77
2022/03/27 06:50:07;;;;;;;30.50;14.73;;;11.20;79.20;;;;;;5070762;28;20436;-78
2022/03/27 06:52:34;;;;;;;32.80;15.57;;;11.10;75.80;;;;;;5070289;28;20934;-77
2022/03/27 06:55:00;;;;;;;35.47;16.20;;;11.10;75.20;;;;;;5070852;28;20810;-77
2022/03/27 06:57:26;;;;;;;30.00;16.23;;;11.40;73.70;;;;;;5069806;28;20429;-77
2022/03/27 07:05:22;;;;;;;36.40;16.13;;;11.80;70.60;;;;;;5069081;28;20424;-77
2022/03/27 07:07:49;;;;;;;33.90;17.00;;;11.70;71.40;;;;;;5068756;28;20410;-76
2022/03/27 07:10:16;;;;;;;39.00;16.77;;;11.70;73.50;;;;;;5067792;28;20429;-77
2022/03/27 07:12:42;;;;;;;30.90;15.80;;;11.90;71.00;;;;;;5068829;28;20505;-75
2022/03/27 07:15:09;;;;;;;31.50;14.83;;;11.90;70.00;;;;;;5071064;28;20858;-76
2022/03/27 07:17:46;;;;;;;37.43;16.87;;;12.10;69.90;;;;;;5071380;28;20449;-76
2022/03/27 07:20:12;;;;;;;31.37;16.63;;;12.20;69.00;;;;;;5071092;28;20437;-76
2022/03/27 07:22:39;;;;;;;35.93;17.57;;;12.30;69.10;;;;;;5071200;28;20778;-76
2022/03/27 07:25:07;;;;;;;31.03;16.10;;;12.20;67.50;;;;;;5071188;28;20423;-76
2022/03/27 07:27:34;;;;;;;33.93;17.10;;;12.40;69.30;;;;;;5069870;28;20425;-76
2022/03/27 07:30:00;;;;;;;38.97;16.80;;;12.60;66.60;;;;;;5069056;28;20446;-76
2022/03/27 07:32:25;;;;;;;31.20;16.13;;;12.90;67.30;;;;;;5070695;28;20415;-75
2022/03/27 07:34:51;;;;;;;37.87;17.40;;;13.20;66.20;;;;;;5069214;28;20665;-76
2022/03/27 07:37:17;;;;;;;32.10;14.70;;;13.30;65.00;;;;;;5070574;28;20230;-77
2022/03/27 07:39:42;;;;;;;31.70;15.63;;;13.50;63.60;;;;;;5070471;28;20739;-77
2022/03/27 07:42:08;;;;;;;31.20;16.80;;;13.50;62.80;;;;;;5069134;28;20187;-77
2022/03/27 07:44:34;;;;;;;29.30;15.37;;;13.10;63.70;;;;;;5068781;28;20235;-77
2022/03/27 07:46:59;;;;;;;29.50;16.07;;;13.30;63.10;;;;;;5070218;28;20188;-77
2022/03/27 07:49:26;;;;;;;36.70;17.53;;;13.50;65.20;;;;;;5068558;28;20271;-77
2022/03/27 07:51:53;;;;;;;32.57;17.10;;;13.60;63.70;;;;;;5070070;28;20261;-76
2022/03/27 07:54:19;;;;;;;34.23;15.87;;;13.70;64.30;;;;;;5070305;28;20469;-76
2022/03/27 07:56:45;;;;;;;35.10;16.50;;;13.70;65.70;;;;;;5068742;28;20969;-77
2022/03/27 07:59:10;;;;;;;27.93;16.17;;;13.80;64.70;;;;;;5068682;28;20254;-76
2022/03/27 08:01:36;;;;;;;38.60;17.53;;;13.90;64.40;;;;;;5068748;28;20535;-77
2022/03/27 08:04:02;;;;;;;32.47;17.23;;;13.90;64.00;;;;;;5070108;28;20224;-76
2022/03/27 08:06:29;;;;;;;35.20;16.50;;;14.10;62.90;;;;;;5070281;28;20179;-77
2022/03/27 08:08:56;;;;;;;30.97;16.33;;;14.30;63.30;;;;;;5068835;28;20208;-77
2022/03/27 08:11:23;;;;;;;34.60;16.93;;;14.40;63.70;;;;;;5068831;28;20546;-77
2022/03/27 08:13:49;;;;;;;26.67;14.93;;;14.40;62.10;;;;;;5070862;28;20428;-77
2022/03/27 08:16:15;;;;;;;32.33;15.40;;;14.50;65.00;;;;;;5070628;28;20428;-77
2022/03/27 08:18:43;;;;;;;33.50;15.37;;;14.70;62.90;;;;;;5070358;28;20420;-77
2022/03/27 08:21:08;;;;;;;28.70;15.47;;;14.80;64.90;;;;;;5070145;28;20433;-77
2022/03/27 08:23:34;;;;;;;37.00;17.23;;;15.00;61.60;;;;;;5069539;28;20925;-77
2022/03/27 08:28:45;;;;;;;29.53;15.30;;;15.10;62.30;;;;;;5070442;28;20596;-77
2022/03/27 08:31:13;;;;;;;27.93;16.33;;;15.30;63.50;;;;;;5068727;28;20441;-78
2022/03/27 08:33:39;;;;;;;30.50;15.87;;;15.50;59.90;;;;;;5068309;28;20226;-77
2022/03/27 08:36:05;;;;;;;30.70;14.57;;;15.70;61.70;;;;;;5051134;28;20484;-76
2022/03/27 08:38:30;;;;;;;32.03;16.60;;;15.90;62.10;;;;;;5068109;28;20558;-77
2022/03/27 08:41:00;;;;;;;37.80;18.73;;;16.00;62.30;;;;;;5070222;28;20199;-77
2022/03/27 08:43:31;;;;;;;36.20;18.27;;;16.10;61.80;;;;;;5069674;28;20207;-77
2022/03/27 08:45:58;;;;;;;35.80;18.20;;;16.30;61.30;;;;;;5069461;28;20445;-77
2022/03/27 08:48:24;;;;;;;36.80;18.77;;;16.60;60.40;;;;;;5069549;28;20471;-77
2022/03/27 08:50:59;;;;;;;31.93;17.60;;;16.60;60.70;;;;;;5069660;28;20437;-77
2022/03/27 08:53:44;;;;;;;33.67;18.00;;;16.50;59.10;;;;;;5068076;28;20849;-78
2022/03/27 08:56:11;;;;;;;25.43;17.50;;;16.80;59.20;;;;;;5069618;28;21219;-78
2022/03/27 08:58:39;;;;;;;40.50;17.87;;;16.90;59.60;;;;;;5067894;28;20519;-77
2022/03/27 09:01:06;;;;;;;28.83;18.33;;;17.30;59.10;;;;;;5069410;28;20491;-77
2022/03/27 09:03:33;;;;;;;36.00;17.70;;;17.40;58.20;;;;;;5067807;28;20842;-78
2022/03/27 09:06:01;;;;;;;36.47;17.27;;;17.70;58.40;;;;;;5069157;28;20499;-78
2022/03/27 09:08:29;;;;;;;42.23;19.27;;;17.80;58.00;;;;;;5069239;28;20434;-77
2022/03/27 09:10:55;;;;;;;30.80;16.97;;;17.90;56.50;;;;;;5068927;28;20875;-78
2022/03/27 09:13:21;;;;;;;32.60;17.23;;;18.60;56.10;;;;;;5069198;28;20427;-77
2022/03/27 09:15:58;;;;;;;31.43;17.07;;;18.50;56.10;;;;;;5067683;28;20431;-77
2022/03/27 09:18:24;;;;;;;30.03;17.40;;;18.80;55.10;;;;;;5069240;28;20444;-77
2022/03/27 09:20:52;;;;;;;30.77;16.77;;;19.10;55.40;;;;;;5069329;28;20446;-77
2022/03/27 09:23:31;;;;;;;32.23;17.70;;;19.50;54.70;;;;;;5068699;28;20224;-77
2022/03/27 09:26:16;;;;;;;30.80;16.70;;;20.00;54.60;;;;;;5067095;28;20423;-78
2022/03/27 09:28:44;;;;;;;29.20;16.73;;;20.10;53.00;;;;;;5066916;28;20429;-77
2022/03/27 09:31:18;;;;;;;34.27;17.67;;;19.90;53.30;;;;;;5066802;28;20438;-77
2022/03/27 09:33:59;;;;;;;34.70;17.00;;;19.90;53.00;;;;;;5068623;28;20429;-77
2022/03/27 09:36:27;;;;;;;29.13;16.50;;;20.50;52.90;;;;;;5067876;28;20433;-77
2022/03/27 09:39:17;;;;;;;35.80;17.30;;;20.60;50.70;;;;;;5050456;28;20421;-77
2022/03/27 09:41:46;;;;;;;29.53;16.43;;;21.10;50.20;;;;;;5068479;28;20461;-78
2022/03/27 09:44:16;;;;;;;26.23;15.17;;;21.10;49.80;;;;;;5072933;28;20489;-80
2022/03/27 09:47:02;;;;;;;25.10;15.53;;;21.30;48.20;;;;;;5069654;28;20490;-80
2022/03/27 09:49:30;;;;;;;24.40;15.23;;;21.40;50.20;;;;;;5070478;28;20790;-80
2022/03/27 09:52:00;;;;;;;18.40;13.83;;;21.50;48.40;;;;;;5069361;28;20417;-80
2022/03/27 09:54:39;;;;;;;29.97;16.17;;;22.10;47.90;;;;;;5069338;28;20416;-80
2022/03/27 09:57:19;;;;;;;24.83;15.17;;;22.30;46.80;;;;;;5067677;28;20520;-80
2022/03/27 09:59:48;;;;;;;31.17;16.23;;;22.80;47.50;;;;;;5068876;28;21018;-79
2022/03/27 10:02:33;;;;;;;26.67;14.97;;;22.80;46.40;;;;;;5069043;28;20937;-80
2022/03/27 10:05:01;;;;;;;26.80;15.47;;;22.70;47.00;;;;;;5070276;28;20474;-79
2022/03/27 10:07:40;;;;;;;26.47;15.33;;;22.90;47.10;;;;;;5067849;28;20413;-79
2022/03/27 10:10:14;;;;;;;37.47;17.00;;;22.70;47.10;;;;;;5069686;28;20464;-78
2022/03/27 10:12:42;;;;;;;29.77;15.40;;;22.50;47.50;;;;;;5052015;28;20451;-77
2022/03/27 10:15:14;;;;;;;26.30;14.27;;;22.60;46.90;;;;;;5068965;28;21009;-78
2022/03/27 10:18:03;;;;;;;22.90;14.13;;;22.80;47.60;;;;;;5067393;28;21151;-77
2022/03/27 10:20:33;;;;;;;29.87;15.27;;;23.30;46.50;;;;;;5068426;28;20494;-79
2022/03/27 10:23:09;;;;;;;22.03;13.80;;;23.50;46.30;;;;;;5050361;28;20475;-77
2022/03/27 10:25:40;;;;;;;31.67;14.90;;;23.90;45.90;;;;;;5068765;28;20401;-78
2022/03/27 10:28:07;;;;;;;21.83;14.37;;;23.50;45.70;;;;;;5068531;28;20410;-78
2022/03/27 10:30:33;;;;;;;32.63;15.17;;;23.70;46.90;;;;;;5050704;28;20471;-79
2022/03/27 10:33:01;;;;;;;22.83;13.33;;;23.40;46.20;;;;;;5067253;28;20433;-80
2022/03/27 10:35:50;;;;;;;23.30;13.63;;;23.20;45.50;;;;;;5068966;28;20478;-81
2022/03/27 10:38:50;;;;;;;29.20;14.53;;;22.80;44.40;;;;;;5069299;28;20879;-79
2022/03/27 10:41:20;;;;;;;28.83;13.83;;;22.30;44.50;;;;;;5071855;28;20443;-81
2022/03/27 10:44:18;;;;;;;31.33;15.80;;;22.10;45.70;;;;;;5067833;28;20461;-83
2022/03/27 10:47:04;;;;;;;23.77;13.50;;;22.10;45.20;;;;;;5068445;28;20413;-81
2022/03/27 10:49:30;;;;;;;22.00;12.97;;;22.20;45.90;;;;;;5069303;28;20471;-82
2022/03/27 10:52:04;;;;;;;21.97;14.77;;;22.30;46.50;;;;;;5050891;28;20459;-81
2022/03/27 10:54:29;;;;;;;29.03;13.50;;;22.30;46.60;;;;;;5066473;28;20251;-81
2022/03/27 10:56:56;;;;;;;32.03;13.93;;;22.30;44.60;;;;;;5066836;28;20841;-79
2022/03/27 10:59:24;;;;;;;21.83;13.90;;;22.40;43.70;;;;;;5066799;28;20203;-78
2022/03/27 11:01:59;;;;;;;23.00;13.83;;;22.50;44.30;;;;;;5050528;28;20424;-80
2022/03/27 11:04:34;;;;;;;21.13;13.20;;;22.30;43.60;;;;;;5050495;28;20469;-80
2022/03/27 11:07:21;;;;;;;21.97;12.60;;;22.30;42.70;;;;;;5068359;28;20436;-81
2022/03/27 11:09:46;;;;;;;20.97;12.20;;;22.30;42.00;;;;;;5068184;28;20435;-78
2022/03/27 11:12:24;;;;;;;29.83;11.93;;;22.40;42.00;;;;;;5069928;28;20837;-79
2022/03/27 11:14:56;;;;;;;21.70;12.67;;;22.30;42.50;;;;;;5067587;28;20183;-80
2022/03/27 11:17:36;;;;;;;22.50;13.30;;;22.40;41.10;;;;;;5068297;28;20512;-82
2022/03/27 11:20:05;;;;;;;26.10;14.90;;;22.30;40.50;;;;;;5067818;28;20956;-79
2022/03/27 11:22:59;;;;;;;21.70;12.10;;;22.30;41.60;;;;;;5051357;28;20491;-80
2022/03/27 11:25:26;;;;;;;24.63;12.37;;;22.40;41.10;;;;;;5069521;28;20431;-83
2022/03/27 11:28:06;;;;;;;22.67;11.47;;;22.40;42.00;;;;;;5067425;28;20441;-79
2022/03/27 11:30:54;;;;;;;17.97;11.27;;;22.60;42.50;;;;;;5066047;28;20441;-75
2022/03/27 11:33:22;;;;;;;24.90;11.63;;;22.60;39.20;;;;;;5062418;28;20414;-78
2022/03/27 11:36:09;;;;;;;20.07;11.27;;;22.50;39.60;;;;;;5067853;28;20412;-80
2022/03/27 11:39:04;;;;;;;18.93;11.50;;;22.60;37.40;;;;;;5067841;28;20412;-79
2022/03/27 11:41:51;;;;;;;22.23;12.90;;;22.70;39.00;;;;;;5066517;28;20412;-80
2022/03/27 11:44:16;;;;;;;18.80;10.73;;;22.70;35.70;;;;;;5066376;28;20472;-76
2022/03/27 11:46:54;;;;;;;23.20;11.20;;;22.80;37.50;;;;;;5067377;28;20940;-76
2022/03/27 11:49:22;;;;;;;31.00;11.67;;;22.90;37.40;;;;;;5067094;28;20566;-75
2022/03/27 11:52:03;;;;;;;23.43;10.67;;;23.00;35.60;;;;;;5067087;28;20409;-76
2022/03/27 11:54:28;;;;;;;19.13;9.87;;;23.00;35.20;;;;;;5067233;28;20412;-75
2022/03/27 11:56:56;;;;;;;21.57;10.53;;;23.10;34.90;;;;;;5067081;28;20417;-75
2022/03/27 11:59:26;;;;;;;22.23;9.63;;;23.20;35.80;;;;;;5069210;28;20230;-76
2022/03/27 12:02:10;;;;;;;28.00;10.77;;;23.00;34.40;;;;;;5070705;28;21174;-75
2022/03/27 12:04:53;;;;;;;18.97;10.73;;;23.00;33.80;;;;;;5070577;28;20463;-75
2022/03/27 12:07:21;;;;;;;18.80;10.63;;;23.20;33.70;;;;;;5070654;28;20415;-75
2022/03/27 12:09:55;;;;;;;18.43;9.50;;;23.20;34.00;;;;;;5070866;28;20475;-75
2022/03/27 12:12:21;;;;;;;24.10;10.90;;;23.20;34.00;;;;;;5069250;28;20990;-75
2022/03/27 12:14:55;;;;;;;21.53;10.07;;;23.30;32.90;;;;;;5070396;28;20450;-75
2022/03/27 12:17:22;;;;;;;19.00;9.27;;;23.30;32.40;;;;;;5070290;28;20690;-75
2022/03/27 12:20:08;;;;;;;20.07;10.40;;;23.30;33.20;;;;;;5068374;28;20480;-76
2022/03/27 12:22:41;;;;;;;17.93;9.77;;;23.40;32.40;;;;;;5068732;28;20476;-75
2022/03/27 12:25:17;;;;;;;12.63;8.77;;;23.40;33.00;;;;;;5068550;28;20427;-75
2022/03/27 12:30:35;;;;;;;15.47;8.20;;;23.40;31.10;;;;;;5070088;28;20467;-76
2022/03/27 12:33:02;;;;;;;16.00;8.70;;;23.30;30.70;;;;;;5068370;28;20498;-75
2022/03/27 12:35:29;;;;;;;16.17;8.33;;;23.50;31.40;;;;;;5069842;28;20412;-75
2022/03/27 12:37:56;;;;;;;13.87;8.00;;;23.50;30.00;;;;;;5068549;28;20429;-76
2022/03/27 12:40:22;;;;;;;15.57;8.00;;;23.60;30.20;;;;;;5070353;28;20995;-76
2022/03/27 12:42:49;;;;;;;15.40;8.90;;;23.60;29.50;;;;;;5070108;28;20910;-76
2022/03/27 12:45:17;;;;;;;14.87;8.50;;;23.60;29.90;;;;;;5069528;28;20414;-75
2022/03/27 12:47:55;;;;;;;13.70;7.97;;;23.70;29.70;;;;;;5069598;28;20414;-76
2022/03/27 12:50:27;;;;;;;20.10;8.90;;;23.60;29.30;;;;;;5069767;28;21013;-76
2022/03/27 12:53:02;;;;;;;11.80;8.30;;;23.80;29.40;;;;;;5069763;28;20955;-76